»·PEaware :: N132LW KOTH-KSJC

N132LW :: KOTH-KSJC

FLIGHT INFORMATION

Flight Status: Arrived
Operator: Privately registered:
United States
More flights under this callsign
Pilot: Lee W. (44)
Aircraft: CANADAIR CL-600 CRJ-200
(CRJ2)
More flights by this aircraft type
Origin: KOTH North Bend Mun
United States
Destination: KSJC Mineta San Jose Intl
United States
More flights between these airports :: More routes between these airports
Route: OTH CEC FJS RBL HU SJC
File this flight plan on PilotEdge
Remarks:
Altitude:
(Current/Filed)
29,000ft
Speed:
(Current/Filed)
450kts
Departed: 07-Dec-13 08:34 AM
Arrived: 07-Dec-13 10:10 AM
Distance/Time
Traveled:
378nm/1:36
Distance/Time
To Go:
Arrived

Flight Plot

Page will automatically refresh every two minutes.


Map Options




Map Legend


Flown Route
Filed Route
Departure Airport
Arrival Airport
Navaid (VOR, NDB)
Fix

Horizontal Profiles

Position Reports

Time Latitude Longitude Heading Altitude Ground
Speed
07-Dec-13 08:31 43.414210 -124.258750 239 22ft 16kts
07-Dec-13 08:32 43.414894 -124.260169 64 22ft 0kts
07-Dec-13 08:33 43.417352 -124.254230 59 22ft 78kts
07-Dec-13 08:34 43.434757 -124.203657 64 1115ft 223kts
07-Dec-13 08:35 43.410334 -124.138839 171 5358ft 221kts
07-Dec-13 08:36 43.349153 -124.166057 188 7324ft 300kts
07-Dec-13 08:37 43.263225 -124.175455 180 10515ft 322kts
07-Dec-13 08:38 43.172869 -124.179887 180 13462ft 335kts
07-Dec-13 08:39 43.078698 -124.184112 180 15967ft 349kts
07-Dec-13 08:40 42.983976 -124.188346 180 18081ft 362kts
07-Dec-13 08:41 42.885325 -124.192743 180 19981ft 372kts
07-Dec-13 08:42 42.805022 -124.196280 181 21290ft 381kts
07-Dec-13 08:43 42.724236 -124.199864 181 22480ft 389kts
07-Dec-13 08:44 42.629378 -124.204033 183 23969ft 389kts
07-Dec-13 08:45 42.548880 -124.207696 182 25197ft 386kts
07-Dec-13 08:46 42.437784 -124.212627 182 25817ft 409kts
07-Dec-13 08:47 42.354750 -124.216194 181 26627ft 413kts
07-Dec-13 08:48 42.254554 -124.220511 182 27528ft 418kts
07-Dec-13 08:49 42.150476 -124.225087 183 28660ft 414kts
07-Dec-13 08:50 42.040811 -124.229834 182 29122ft 426kts
07-Dec-13 08:51 41.928339 -124.234813 182 29124ft 439kts
07-Dec-13 08:52 41.811762 -124.223442 148 29136ft 445kts
07-Dec-13 08:53 41.748167 -124.096338 105 29145ft 443kts
07-Dec-13 08:54 41.713829 -123.948680 104 29144ft 451kts
07-Dec-13 08:55 41.683754 -123.813163 104 29142ft 457kts
07-Dec-13 08:56 41.647987 -123.655983 104 29143ft 461kts
07-Dec-13 08:57 41.612697 -123.502347 104 29138ft 461kts
07-Dec-13 08:58 41.577429 -123.349895 104 29140ft 461kts
07-Dec-13 08:59 41.542533 -123.200200 104 29032ft 461kts
07-Dec-13 09:00 41.507035 -123.048190 107 28968ft 457kts
07-Dec-13 09:01 41.471573 -122.898563 107 28969ft 453kts
07-Dec-13 09:02 41.420862 -122.802112 151 28982ft 448kts
07-Dec-13 09:03 41.317710 -122.749603 161 28970ft 449kts
07-Dec-13 09:04 41.208589 -122.702623 162 28970ft 450kts
07-Dec-13 09:05 41.094650 -122.653983 162 28975ft 450kts
07-Dec-13 09:06 40.977096 -122.603989 162 29026ft 449kts
07-Dec-13 09:07 40.866921 -122.557305 162 29040ft 450kts
07-Dec-13 09:08 40.759691 -122.512024 162 29040ft 450kts
07-Dec-13 09:09 40.654960 -122.467946 162 29040ft 450kts
07-Dec-13 09:10 40.557907 -122.427229 162 29040ft 450kts
07-Dec-13 09:11 40.458345 -122.385588 162 29040ft 451kts
07-Dec-13 09:12 40.375166 -122.350903 162 29039ft 451kts
07-Dec-13 09:13 40.295450 -122.317745 162 29039ft 452kts
07-Dec-13 09:14 40.193547 -122.275453 162 29039ft 454kts
07-Dec-13 09:15 40.073423 -122.270615 209 29052ft 450kts
07-Dec-13 09:16 39.971592 -122.365326 218 29041ft 452kts
07-Dec-13 09:17 39.873018 -122.464205 218 28264ft 444kts
07-Dec-13 09:19 39.632815 -122.704005 218 25112ft 428kts
07-Dec-13 09:21 39.497276 -122.838387 218 22672ft 415kts
07-Dec-13 09:22 39.420449 -122.914253 218 21643ft 407kts
07-Dec-13 09:23 39.345921 -122.987676 218 20633ft 402kts
07-Dec-13 09:24 39.261897 -123.070172 218 19559ft 396kts
07-Dec-13 09:25 39.177820 -123.153430 218 18566ft 390kts
07-Dec-13 09:26 39.093332 -123.236045 217 17642ft 385kts
07-Dec-13 09:27 38.994729 -123.247666 164 16753ft 383kts
07-Dec-13 09:28 38.896026 -123.207940 161 16293ft 379kts
07-Dec-13 09:29 38.798566 -123.166997 162 15719ft 375kts
07-Dec-13 09:30 38.718100 -123.133241 162 15347ft 369kts
07-Dec-13 09:31 38.624132 -123.093941 162 14810ft 366kts
07-Dec-13 09:32 38.530432 -123.054836 162 14312ft 364kts
07-Dec-13 09:33 38.442408 -123.018187 162 14253ft 323kts
07-Dec-13 09:34 38.366983 -122.986868 162 13912ft 301kts
07-Dec-13 09:35 38.288160 -122.954210 162 13095ft 299kts
07-Dec-13 09:36 38.209819 -122.921813 162 12321ft 297kts
07-Dec-13 09:37 38.137009 -122.891413 163 11585ft 298kts
07-Dec-13 09:38 38.069801 -122.864188 172 11157ft 299kts
07-Dec-13 09:39 37.994182 -122.844456 170 10905ft 298kts
07-Dec-13 09:40 37.914823 -122.823251 170 10655ft 296kts
07-Dec-13 09:41 37.840956 -122.803566 169 10016ft 299kts
07-Dec-13 09:42 37.770942 -122.784947 168 9223ft 299kts
07-Dec-13 09:43 37.703723 -122.767013 167 8886ft 270kts
07-Dec-13 09:44 37.652686 -122.753449 167 8441ft 204kts
07-Dec-13 09:45 37.600988 -122.739722 167 6741ft 221kts
07-Dec-13 09:46 37.541323 -122.723916 168 6281ft 213kts
07-Dec-13 09:47 37.485545 -122.709159 167 6267ft 206kts
07-Dec-13 09:48 37.432500 -122.695128 168 6269ft 203kts
07-Dec-13 09:49 37.376109 -122.680237 168 6270ft 212kts
07-Dec-13 09:50 37.320084 -122.659937 124 6260ft 206kts
07-Dec-13 09:51 37.322631 -122.593869 72 6266ft 193kts
07-Dec-13 09:52 37.336161 -122.528220 69 6269ft 194kts
07-Dec-13 09:53 37.350973 -122.462684 69 6265ft 194kts
07-Dec-13 09:54 37.365880 -122.397586 69 6267ft 195kts
07-Dec-13 09:55 37.379217 -122.339435 69 6277ft 198kts
07-Dec-13 09:56 37.391000 -122.288039 70 6033ft 197kts
07-Dec-13 09:57 37.404864 -122.241325 66 4689ft 198kts
07-Dec-13 09:58 37.419247 -122.197679 65 3659ft 196kts
07-Dec-13 09:59 37.433247 -122.157013 65 3016ft 192kts
07-Dec-13 10:00 37.447661 -122.115669 65 2331ft 191kts
07-Dec-13 10:01 37.463692 -122.070128 65 1736ft 183kts
07-Dec-13 10:02 37.463474 -122.028825 147 1716ft 180kts
07-Dec-13 10:03 37.439936 -122.013647 144 1670ft 149kts
07-Dec-13 10:04 37.422152 -121.995223 140 1358ft 149kts
07-Dec-13 10:05 37.404776 -121.976168 139 959ft 155kts
07-Dec-13 10:06 37.388150 -121.957881 139 542ft 159kts
07-Dec-13 10:07 37.371921 -121.940046 139 84ft 151kts
07-Dec-13 10:08 37.360139 -121.927137 139 54ft 59kts
07-Dec-13 10:09 37.359331 -121.922288 45 54ft 20kts
07-Dec-13 10:10 37.361889 -121.924259 316 54ft 23kts
07-Dec-13 10:11 37.364859 -121.926577 69 54ft 15kts
07-Dec-13 10:12 37.365385 -121.925729 47 54ft 0kts

Navigation Log

Ident Type
1. KOTH Airport
2. OTH Navaid
3. CEC Navaid
4. FJS Navaid
5. RBL Navaid
6. HU Navaid
7. SJC Navaid
8. KSJC Airport